sensor_id;sensor_type;location;lat;lon;timestamp;P1;P2;P0
69222;PMS7003;56514;51.816;-0.026;2023-02-15T00:02:10;35.25;35.25;21.50
69222;PMS7003;56514;51.816;-0.026;2023-02-15T00:05:19;26.00;23.75;13.25
69222;PMS7003;56514;51.816;-0.026;2023-02-15T00:08:28;41.00;32.25;23.00
69222;PMS7003;56514;51.816;-0.026;2023-02-15T00:11:37;45.50;43.25;28.75
69222;PMS7003;56514;51.816;-0.026;2023-02-15T00:14:34;46.00;40.75;28.00
69222;PMS7003;56514;51.816;-0.026;2023-02-15T00:17:18;50.50;44.00;30.00
69222;PMS7003;56514;51.816;-0.026;2023-02-15T00:20:05;48.25;44.25;27.75
69222;PMS7003;56514;51.816;-0.026;2023-02-15T00:22:50;55.50;49.00;30.50
69222;PMS7003;56514;51.816;-0.026;2023-02-15T00:25:35;45.25;43.75;27.75
69222;PMS7003;56514;51.816;-0.026;2023-02-15T00:28:20;39.75;39.00;28.25
69222;PMS7003;56514;51.816;-0.026;2023-02-15T00:31:07;45.00;40.00;26.25
69222;PMS7003;56514;51.816;-0.026;2023-02-15T00:33:53;37.25;37.25;23.75
69222;PMS7003;56514;51.816;-0.026;2023-02-15T00:36:38;31.50;31.50;20.25
69222;PMS7003;56514;51.816;-0.026;2023-02-15T00:39:24;33.00;29.00;21.25
69222;PMS7003;56514;51.816;-0.026;2023-02-15T00:42:09;35.75;32.75;23.50
69222;PMS7003;56514;51.816;-0.026;2023-02-15T00:44:54;35.25;35.00;24.00
69222;PMS7003;56514;51.816;-0.026;2023-02-15T00:47:39;33.25;32.25;22.50
69222;PMS7003;56514;51.816;-0.026;2023-02-15T00:50:24;40.75;40.75;26.00
69222;PMS7003;56514;51.816;-0.026;2023-02-15T00:53:09;39.25;35.50;21.50
69222;PMS7003;56514;51.816;-0.026;2023-02-15T00:55:54;35.50;31.00;23.50
69222;PMS7003;56514;51.816;-0.026;2023-02-15T00:58:40;27.75;27.75;21.00
69222;PMS7003;56514;51.816;-0.026;2023-02-15T01:01:25;29.25;28.50;20.50
69222;PMS7003;56514;51.816;-0.026;2023-02-15T01:04:10;28.00;24.50;18.00
69222;PMS7003;56514;51.816;-0.026;2023-02-15T01:06:55;33.00;30.75;22.50
69222;PMS7003;56514;51.816;-0.026;2023-02-15T01:09:39;35.00;30.75;20.50
69222;PMS7003;56514;51.816;-0.026;2023-02-15T01:12:24;35.00;34.75;26.00
69222;PMS7003;56514;51.816;-0.026;2023-02-15T01:15:09;28.25;27.50;20.50
69222;PMS7003;56514;51.816;-0.026;2023-02-15T01:17:54;10.25;10.25;4.25
69222;PMS7003;56514;51.816;-0.026;2023-02-15T01:20:43;37.00;33.00;23.25
69222;PMS7003;56514;51.816;-0.026;2023-02-15T01:23:27;34.75;34.25;23.00
69222;PMS7003;56514;51.816;-0.026;2023-02-15T01:26:12;29.00;28.50;19.50
69222;PMS7003;56514;51.816;-0.026;2023-02-15T01:28:58;30.25;28.75;22.75
69222;PMS7003;56514;51.816;-0.026;2023-02-15T01:31:42;40.50;34.25;25.25
69222;PMS7003;56514;51.816;-0.026;2023-02-15T01:34:28;33.00;28.75;25.25
69222;PMS7003;56514;51.816;-0.026;2023-02-15T01:37:14;39.75;34.00;22.75
69222;PMS7003;56514;51.816;-0.026;2023-02-15T01:39:58;31.50;30.25;20.00
69222;PMS7003;56514;51.816;-0.026;2023-02-15T01:42:44;37.00;32.00;21.00
69222;PMS7003;56514;51.816;-0.026;2023-02-15T01:45:30;31.50;27.50;20.75
69222;PMS7003;56514;51.816;-0.026;2023-02-15T01:48:18;32.00;28.75;21.00
69222;PMS7003;56514;51.816;-0.026;2023-02-15T01:51:07;30.00;26.50;18.50
69222;PMS7003;56514;51.816;-0.026;2023-02-15T01:53:56;33.75;30.50;20.75
69222;PMS7003;56514;51.816;-0.026;2023-02-15T01:56:45;32.00;30.50;21.25
69222;PMS7003;56514;51.816;-0.026;2023-02-15T01:59:32;32.00;29.50;19.75
69222;PMS7003;56514;51.816;-0.026;2023-02-15T02:02:19;29.25;29.25;18.00
69222;PMS7003;56514;51.816;-0.026;2023-02-15T02:05:12;33.75;32.00;20.50
69222;PMS7003;56514;51.816;-0.026;2023-02-15T02:07:58;32.75;31.00;22.25
69222;PMS7003;56514;51.816;-0.026;2023-02-15T02:10:46;38.00;33.75;22.25
69222;PMS7003;56514;51.816;-0.026;2023-02-15T02:13:31;32.25;28.75;17.75
69222;PMS7003;56514;51.816;-0.026;2023-02-15T02:19:51;20.50;20.50;15.75
69222;PMS7003;56514;51.816;-0.026;2023-02-15T02:25:53;21.75;21.50;15.50
69222;PMS7003;56514;51.816;-0.026;2023-02-15T02:35:22;20.00;20.00;16.75
69222;PMS7003;56514;51.816;-0.026;2023-02-15T02:41:22;20.75;19.50;14.50
69222;PMS7003;56514;51.816;-0.026;2023-02-15T02:44:26;23.25;22.00;17.00
69222;PMS7003;56514;51.816;-0.026;2023-02-15T02:47:23;27.25;26.25;20.75
69222;PMS7003;56514;51.816;-0.026;2023-02-15T02:50:16;20.25;18.50;12.75
69222;PMS7003;56514;51.816;-0.026;2023-02-15T02:53:08;18.00;17.25;11.50
69222;PMS7003;56514;51.816;-0.026;2023-02-15T03:04:45;31.25;23.00;18.25
69222;PMS7003;56514;51.816;-0.026;2023-02-15T03:07:42;30.00;24.00;18.00
69222;PMS7003;56514;51.816;-0.026;2023-02-15T03:10:35;29.00;26.00;19.25
69222;PMS7003;56514;51.816;-0.026;2023-02-15T03:13:23;25.00;21.75;18.00
69222;PMS7003;56514;51.816;-0.026;2023-02-15T03:16:08;29.75;28.50;21.25
69222;PMS7003;56514;51.816;-0.026;2023-02-15T03:19:15;33.00;31.00;20.00
69222;PMS7003;56514;51.816;-0.026;2023-02-15T03:22:08;50.25;41.25;23.75
69222;PMS7003;56514;51.816;-0.026;2023-02-15T03:25:02;45.75;36.50;24.50
69222;PMS7003;56514;51.816;-0.026;2023-02-15T03:28:17;49.50;43.50;24.50
69222;PMS7003;56514;51.816;-0.026;2023-02-15T03:31:05;36.00;36.00;26.00
69222;PMS7003;56514;51.816;-0.026;2023-02-15T03:33:57;34.25;31.50;20.00
69222;PMS7003;56514;51.816;-0.026;2023-02-15T03:42:41;21.75;21.25;16.50
69222;PMS7003;56514;51.816;-0.026;2023-02-15T03:45:29;26.75;23.75;18.00
69222;PMS7003;56514;51.816;-0.026;2023-02-15T03:48:17;22.75;22.00;16.00
69222;PMS7003;56514;51.816;-0.026;2023-02-15T03:51:08;22.00;18.00;12.00
69222;PMS7003;56514;51.816;-0.026;2023-02-15T03:54:17;26.50;26.50;18.00
69222;PMS7003;56514;51.816;-0.026;2023-02-15T03:57:26;29.50;27.25;19.25
69222;PMS7003;56514;51.816;-0.026;2023-02-15T04:00:31;31.25;30.00;21.50
69222;PMS7003;56514;51.816;-0.026;2023-02-15T04:04:00;29.50;27.75;18.50
69222;PMS7003;56514;51.816;-0.026;2023-02-15T04:06:52;29.00;27.00;14.00
69222;PMS7003;56514;51.816;-0.026;2023-02-15T04:09:37;23.00;23.00;17.25
69222;PMS7003;56514;51.816;-0.026;2023-02-15T04:12:40;24.75;20.25;15.00
69222;PMS7003;56514;51.816;-0.026;2023-02-15T04:15:25;29.00;28.75;19.00
69222;PMS7003;56514;51.816;-0.026;2023-02-15T04:18:33;29.75;29.00;20.50
69222;PMS7003;56514;51.816;-0.026;2023-02-15T04:21:39;24.50;23.50;17.75
69222;PMS7003;56514;51.816;-0.026;2023-02-15T04:24:42;22.75;22.75;19.00
69222;PMS7003;56514;51.816;-0.026;2023-02-15T04:27:47;29.00;28.00;21.25
69222;PMS7003;56514;51.816;-0.026;2023-02-15T04:30:34;31.25;28.25;20.75
69222;PMS7003;56514;51.816;-0.026;2023-02-15T04:33:19;37.25;34.00;22.25
69222;PMS7003;56514;51.816;-0.026;2023-02-15T04:36:05;38.75;34.50;20.50
69222;PMS7003;56514;51.816;-0.026;2023-02-15T04:38:49;26.75;24.50;18.00
69222;PMS7003;56514;51.816;-0.026;2023-02-15T04:41:34;27.25;27.00;16.50
69222;PMS7003;56514;51.816;-0.026;2023-02-15T04:44:19;24.75;23.50;19.25
69222;PMS7003;56514;51.816;-0.026;2023-02-15T04:47:04;38.75;30.00;20.25
69222;PMS7003;56514;51.816;-0.026;2023-02-15T04:49:49;38.50;38.50;22.25
69222;PMS7003;56514;51.816;-0.026;2023-02-15T04:52:34;38.75;37.25;23.25
69222;PMS7003;56514;51.816;-0.026;2023-02-15T04:55:19;33.00;33.00;21.50
69222;PMS7003;56514;51.816;-0.026;2023-02-15T04:58:04;31.25;28.25;22.25
69222;PMS7003;56514;51.816;-0.026;2023-02-15T05:00:49;36.00;31.75;20.25
69222;PMS7003;56514;51.816;-0.026;2023-02-15T05:03:33;43.50;40.00;24.00
69222;PMS7003;56514;51.816;-0.026;2023-02-15T05:06:19;39.25;36.75;23.75
69222;PMS7003;56514;51.816;-0.026;2023-02-15T05:09:04;38.75;33.00;25.50
69222;PMS7003;56514;51.816;-0.026;2023-02-15T05:11:48;36.00;32.75;24.50
69222;PMS7003;56514;51.816;-0.026;2023-02-15T05:14:33;40.00;32.00;20.00
69222;PMS7003;56514;51.816;-0.026;2023-02-15T05:17:18;28.00;25.50;18.00
69222;PMS7003;56514;51.816;-0.026;2023-02-15T05:20:03;30.50;28.50;19.50
69222;PMS7003;56514;51.816;-0.026;2023-02-15T05:22:50;17.25;16.25;10.50
69222;PMS7003;56514;51.816;-0.026;2023-02-15T05:25:38;22.75;22.75;17.25
69222;PMS7003;56514;51.816;-0.026;2023-02-15T05:28:42;25.00;25.00;17.50
69222;PMS7003;56514;51.816;-0.026;2023-02-15T05:31:27;23.00;23.00;19.00
69222;PMS7003;56514;51.816;-0.026;2023-02-15T05:34:11;29.25;27.00;17.50
69222;PMS7003;56514;51.816;-0.026;2023-02-15T05:36:57;23.25;23.25;19.25
69222;PMS7003;56514;51.816;-0.026;2023-02-15T05:39:43;23.00;23.00;18.50
69222;PMS7003;56514;51.816;-0.026;2023-02-15T05:42:27;36.00;36.00;20.75
69222;PMS7003;56514;51.816;-0.026;2023-02-15T05:45:12;32.75;31.75;21.75
69222;PMS7003;56514;51.816;-0.026;2023-02-15T05:47:57;35.50;30.75;21.00
69222;PMS7003;56514;51.816;-0.026;2023-02-15T05:50:43;33.50;32.25;21.00
69222;PMS7003;56514;51.816;-0.026;2023-02-15T05:53:29;37.50;32.50;21.25
69222;PMS7003;56514;51.816;-0.026;2023-02-15T05:56:15;32.75;32.25;20.75
69222;PMS7003;56514;51.816;-0.026;2023-02-15T05:59:00;32.50;29.75;21.25
69222;PMS7003;56514;51.816;-0.026;2023-02-15T06:01:45;34.75;30.25;20.25
69222;PMS7003;56514;51.816;-0.026;2023-02-15T06:04:30;26.75;25.75;18.25
69222;PMS7003;56514;51.816;-0.026;2023-02-15T06:07:15;35.00;30.00;24.00
69222;PMS7003;56514;51.816;-0.026;2023-02-15T06:09:59;29.75;26.75;20.00
69222;PMS7003;56514;51.816;-0.026;2023-02-15T06:12:44;30.00;27.50;19.00
69222;PMS7003;56514;51.816;-0.026;2023-02-15T06:15:29;33.50;28.50;22.25
69222;PMS7003;56514;51.816;-0.026;2023-02-15T06:18:14;27.50;27.00;23.00
69222;PMS7003;56514;51.816;-0.026;2023-02-15T06:20:59;33.50;27.75;21.00
69222;PMS7003;56514;51.816;-0.026;2023-02-15T06:23:44;42.50;34.75;18.50
69222;PMS7003;56514;51.816;-0.026;2023-02-15T06:26:28;30.25;29.50;19.00
69222;PMS7003;56514;51.816;-0.026;2023-02-15T06:29:13;27.75;24.00;16.50
69222;PMS7003;56514;51.816;-0.026;2023-02-15T06:31:58;37.50;34.75;23.00
69222;PMS7003;56514;51.816;-0.026;2023-02-15T06:34:43;29.75;27.75;17.50
69222;PMS7003;56514;51.816;-0.026;2023-02-15T06:37:28;25.25;24.50;18.50
69222;PMS7003;56514;51.816;-0.026;2023-02-15T06:40:13;33.25;28.75;18.25
69222;PMS7003;56514;51.816;-0.026;2023-02-15T06:42:59;23.50;22.00;15.50
69222;PMS7003;56514;51.816;-0.026;2023-02-15T06:45:44;34.25;29.25;20.50
69222;PMS7003;56514;51.816;-0.026;2023-02-15T06:48:29;28.25;28.25;21.50
69222;PMS7003;56514;51.816;-0.026;2023-02-15T06:51:14;36.00;36.00;23.25
69222;PMS7003;56514;51.816;-0.026;2023-02-15T06:53:58;32.00;30.25;21.00
69222;PMS7003;56514;51.816;-0.026;2023-02-15T06:56:43;30.75;30.00;21.00
69222;PMS7003;56514;51.816;-0.026;2023-02-15T06:59:28;26.75;26.75;18.00
69222;PMS7003;56514;51.816;-0.026;2023-02-15T07:02:14;32.75;31.25;20.50
69222;PMS7003;56514;51.816;-0.026;2023-02-15T07:04:59;30.75;29.50;20.50
69222;PMS7003;56514;51.816;-0.026;2023-02-15T07:07:43;23.25;23.25;18.00
69222;PMS7003;56514;51.816;-0.026;2023-02-15T07:10:28;26.00;24.50;17.00
69222;PMS7003;56514;51.816;-0.026;2023-02-15T07:13:13;40.25;39.25;25.50
69222;PMS7003;56514;51.816;-0.026;2023-02-15T07:15:58;67.00;57.50;36.75
69222;PMS7003;56514;51.816;-0.026;2023-02-15T07:18:43;42.75;31.50;28.50
69222;PMS7003;56514;51.816;-0.026;2023-02-15T07:21:27;53.75;49.50;33.00
69222;PMS7003;56514;51.816;-0.026;2023-02-15T07:24:12;49.25;46.00;30.50
69222;PMS7003;56514;51.816;-0.026;2023-02-15T07:26:58;39.75;37.50;25.00
69222;PMS7003;56514;51.816;-0.026;2023-02-15T07:29:43;39.50;36.50;23.00
69222;PMS7003;56514;51.816;-0.026;2023-02-15T07:32:28;41.75;39.75;27.25
69222;PMS7003;56514;51.816;-0.026;2023-02-15T07:35:14;38.00;32.50;22.75
69222;PMS7003;56514;51.816;-0.026;2023-02-15T07:37:59;36.25;30.75;21.00
69222;PMS7003;56514;51.816;-0.026;2023-02-15T07:40:45;34.75;29.75;19.75
69222;PMS7003;56514;51.816;-0.026;2023-02-15T07:43:30;41.00;30.75;20.50
69222;PMS7003;56514;51.816;-0.026;2023-02-15T07:46:17;44.00;39.50;22.00
69222;PMS7003;56514;51.816;-0.026;2023-02-15T07:49:03;38.50;33.75;22.50
69222;PMS7003;56514;51.816;-0.026;2023-02-15T07:51:50;39.00;37.00;24.00
69222;PMS7003;56514;51.816;-0.026;2023-02-15T07:54:35;30.50;29.75;21.00
69222;PMS7003;56514;51.816;-0.026;2023-02-15T07:57:20;40.00;34.50;23.00
69222;PMS7003;56514;51.816;-0.026;2023-02-15T08:00:05;37.50;36.25;24.00
69222;PMS7003;56514;51.816;-0.026;2023-02-15T08:02:51;38.75;36.50;24.50
69222;PMS7003;56514;51.816;-0.026;2023-02-15T08:05:58;45.25;37.00;27.00
69222;PMS7003;56514;51.816;-0.026;2023-02-15T08:08:44;38.00;35.25;24.00
69222;PMS7003;56514;51.816;-0.026;2023-02-15T08:11:30;39.50;33.25;21.50
69222;PMS7003;56514;51.816;-0.026;2023-02-15T08:14:24;48.25;41.00;29.50
69222;PMS7003;56514;51.816;-0.026;2023-02-15T08:17:09;46.25;43.75;28.25
69222;PMS7003;56514;51.816;-0.026;2023-02-15T08:19:54;38.00;37.25;24.00
69222;PMS7003;56514;51.816;-0.026;2023-02-15T08:22:38;45.50;40.25;25.00
69222;PMS7003;56514;51.816;-0.026;2023-02-15T08:25:23;42.75;39.00;26.50
69222;PMS7003;56514;51.816;-0.026;2023-02-15T08:28:08;39.00;39.00;26.50
69222;PMS7003;56514;51.816;-0.026;2023-02-15T08:30:53;46.00;40.50;26.00
69222;PMS7003;56514;51.816;-0.026;2023-02-15T08:33:38;46.75;41.75;27.50
69222;PMS7003;56514;51.816;-0.026;2023-02-15T08:36:26;36.75;31.00;22.00
69222;PMS7003;56514;51.816;-0.026;2023-02-15T08:39:13;44.50;40.75;27.00
69222;PMS7003;56514;51.816;-0.026;2023-02-15T08:41:59;39.25;37.50;25.00
69222;PMS7003;56514;51.816;-0.026;2023-02-15T08:44:45;36.50;34.50;22.50
69222;PMS7003;56514;51.816;-0.026;2023-02-15T08:47:29;37.50;35.25;24.00
69222;PMS7003;56514;51.816;-0.026;2023-02-15T08:50:14;38.00;35.50;25.00
69222;PMS7003;56514;51.816;-0.026;2023-02-15T08:52:59;36.75;35.75;23.25
69222;PMS7003;56514;51.816;-0.026;2023-02-15T08:55:44;41.25;37.50;27.00
69222;PMS7003;56514;51.816;-0.026;2023-02-15T08:58:29;37.00;35.25;24.00
69222;PMS7003;56514;51.816;-0.026;2023-02-15T09:01:25;33.75;33.50;23.50
69222;PMS7003;56514;51.816;-0.026;2023-02-15T09:04:12;42.75;38.50;26.00
69222;PMS7003;56514;51.816;-0.026;2023-02-15T09:06:57;41.00;39.25;28.50
69222;PMS7003;56514;51.816;-0.026;2023-02-15T09:09:43;33.25;32.00;22.75
69222;PMS7003;56514;51.816;-0.026;2023-02-15T09:12:27;44.00;39.75;25.00
69222;PMS7003;56514;51.816;-0.026;2023-02-15T09:15:12;38.00;38.00;27.25
69222;PMS7003;56514;51.816;-0.026;2023-02-15T09:17:56;40.50;36.25;24.50
69222;PMS7003;56514;51.816;-0.026;2023-02-15T09:20:45;38.75;37.50;22.25
69222;PMS7003;56514;51.816;-0.026;2023-02-15T09:23:30;39.75;38.50;27.00
69222;PMS7003;56514;51.816;-0.026;2023-02-15T09:26:16;34.00;34.00;24.50
69222;PMS7003;56514;51.816;-0.026;2023-02-15T09:29:03;40.00;34.75;23.75
69222;PMS7003;56514;51.816;-0.026;2023-02-15T09:31:48;38.75;38.00;26.50
69222;PMS7003;56514;51.816;-0.026;2023-02-15T09:34:34;30.25;30.25;22.25
69222;PMS7003;56514;51.816;-0.026;2023-02-15T09:37:19;37.75;37.75;27.00
69222;PMS7003;56514;51.816;-0.026;2023-02-15T09:40:04;33.25;33.25;22.25
69222;PMS7003;56514;51.816;-0.026;2023-02-15T09:45:50;39.00;36.75;21.75
69222;PMS7003;56514;51.816;-0.026;2023-02-15T09:48:49;38.00;36.50;24.25
69222;PMS7003;56514;51.816;-0.026;2023-02-15T09:51:53;34.25;31.75;23.75
69222;PMS7003;56514;51.816;-0.026;2023-02-15T09:55:12;40.25;37.75;25.50
69222;PMS7003;56514;51.816;-0.026;2023-02-15T09:58:05;42.33;41.33;25.00
69222;PMS7003;56514;51.816;-0.026;2023-02-15T10:13:39;56.00;49.50;33.00
69222;PMS7003;56514;51.816;-0.026;2023-02-15T10:16:43;44.50;40.75;26.50
69222;PMS7003;56514;51.816;-0.026;2023-02-15T10:22:37;47.75;46.75;32.50
69222;PMS7003;56514;51.816;-0.026;2023-02-15T10:28:23;63.75;49.50;31.00
69222;PMS7003;56514;51.816;-0.026;2023-02-15T10:52:21;65.50;54.75;36.00
69222;PMS7003;56514;51.816;-0.026;2023-02-15T10:55:21;71.75;59.00;36.50
69222;PMS7003;56514;51.816;-0.026;2023-02-15T11:08:00;62.75;53.50;34.50
69222;PMS7003;56514;51.816;-0.026;2023-02-15T11:10:57;70.25;57.75;36.00
69222;PMS7003;56514;51.816;-0.026;2023-02-15T11:13:47;58.00;47.50;31.75
69222;PMS7003;56514;51.816;-0.026;2023-02-15T11:16:37;49.50;46.00;32.75
69222;PMS7003;56514;51.816;-0.026;2023-02-15T11:19:30;60.25;50.25;33.00
69222;PMS7003;56514;51.816;-0.026;2023-02-15T11:22:17;46.75;44.25;30.50
69222;PMS7003;56514;51.816;-0.026;2023-02-15T11:25:05;47.33;44.33;28.67
69222;PMS7003;56514;51.816;-0.026;2023-02-15T11:28:03;42.67;39.00;25.67
69222;PMS7003;56514;51.816;-0.026;2023-02-15T11:31:01;41.33;37.00;28.67
69222;PMS7003;56514;51.816;-0.026;2023-02-15T11:33:57;37.33;37.33;26.00
69222;PMS7003;56514;51.816;-0.026;2023-02-15T11:36:48;41.67;41.67;26.33
69222;PMS7003;56514;51.816;-0.026;2023-02-15T11:39:37;34.00;31.75;23.00
69222;PMS7003;56514;51.816;-0.026;2023-02-15T11:42:23;48.00;42.67;26.67
69222;PMS7003;56514;51.816;-0.026;2023-02-15T11:48:10;33.75;30.50;23.75
69222;PMS7003;56514;51.816;-0.026;2023-02-15T11:50:57;40.33;36.33;24.67
69222;PMS7003;56514;51.816;-0.026;2023-02-15T11:53:43;40.50;36.75;25.00
69222;PMS7003;56514;51.816;-0.026;2023-02-15T11:56:30;38.67;37.00;26.67
69222;PMS7003;56514;51.816;-0.026;2023-02-15T11:59:24;38.00;38.00;26.00
69222;PMS7003;56514;51.816;-0.026;2023-02-15T12:02:18;40.67;38.67;26.33
69222;PMS7003;56514;51.816;-0.026;2023-02-15T12:05:07;42.00;39.67;26.67
69222;PMS7003;56514;51.816;-0.026;2023-02-15T12:08:01;37.67;37.67;27.00
69222;PMS7003;56514;51.816;-0.026;2023-02-15T12:13:58;43.00;39.50;25.75
69222;PMS7003;56514;51.816;-0.026;2023-02-15T12:19:33;33.25;32.00;22.50
69222;PMS7003;56514;51.816;-0.026;2023-02-15T12:22:34;39.50;37.75;25.25
69222;PMS7003;56514;51.816;-0.026;2023-02-15T12:31:28;31.75;30.75;23.00
69222;PMS7003;56514;51.816;-0.026;2023-02-15T12:37:10;35.00;34.00;22.25
69222;PMS7003;56514;51.816;-0.026;2023-02-15T12:40:20;33.50;31.00;24.25
69222;PMS7003;56514;51.816;-0.026;2023-02-15T12:43:31;31.75;31.25;21.25
69222;PMS7003;56514;51.816;-0.026;2023-02-15T12:49:14;29.00;29.00;19.75
69222;PMS7003;56514;51.816;-0.026;2023-02-15T12:52:02;33.25;33.25;21.25
69222;PMS7003;56514;51.816;-0.026;2023-02-15T12:54:48;28.00;28.00;20.75
69222;PMS7003;56514;51.816;-0.026;2023-02-15T12:57:34;38.75;36.75;24.00
69222;PMS7003;56514;51.816;-0.026;2023-02-15T13:03:14;44.25;37.00;24.25
69222;PMS7003;56514;51.816;-0.026;2023-02-15T13:06:05;27.50;26.25;21.25
69222;PMS7003;56514;51.816;-0.026;2023-02-15T13:12:21;24.50;24.50;18.75
69222;PMS7003;56514;51.816;-0.026;2023-02-15T13:15:22;25.50;25.50;18.75
69222;PMS7003;56514;51.816;-0.026;2023-02-15T13:18:16;26.50;26.50;21.50
69222;PMS7003;56514;51.816;-0.026;2023-02-15T13:21:10;26.75;26.25;21.75
69222;PMS7003;56514;51.816;-0.026;2023-02-15T13:23:58;17.25;17.25;13.75
69222;PMS7003;56514;51.816;-0.026;2023-02-15T13:26:46;21.25;21.25;16.75
69222;PMS7003;56514;51.816;-0.026;2023-02-15T13:29:36;18.50;18.50;14.00
69222;PMS7003;56514;51.816;-0.026;2023-02-15T13:35:15;19.50;19.50;16.25
69222;PMS7003;56514;51.816;-0.026;2023-02-15T13:41:03;20.75;19.75;15.00
69222;PMS7003;56514;51.816;-0.026;2023-02-15T13:43:57;17.25;16.75;14.00
69222;PMS7003;56514;51.816;-0.026;2023-02-15T13:56:23;17.00;17.00;15.00
69222;PMS7003;56514;51.816;-0.026;2023-02-15T14:09:24;18.00;18.00;15.00
69222;PMS7003;56514;51.816;-0.026;2023-02-15T14:11:57;18.25;17.75;15.75
69222;PMS7003;56514;51.816;-0.026;2023-02-15T14:15:10;17.25;17.25;14.00
69222;PMS7003;56514;51.816;-0.026;2023-02-15T14:30:40;17.00;17.00;13.75
69222;PMS7003;56514;51.816;-0.026;2023-02-15T14:36:22;13.00;13.00;12.25
69222;PMS7003;56514;51.816;-0.026;2023-02-15T14:48:09;18.75;18.00;14.00
69222;PMS7003;56514;51.816;-0.026;2023-02-15T14:50:56;18.00;15.00;13.00
69222;PMS7003;56514;51.816;-0.026;2023-02-15T14:53:45;19.50;19.50;15.00
69222;PMS7003;56514;51.816;-0.026;2023-02-15T14:56:29;17.50;17.50;13.25
69222;PMS7003;56514;51.816;-0.026;2023-02-15T14:59:16;13.75;13.75;12.75
69222;PMS7003;56514;51.816;-0.026;2023-02-15T15:07:37;16.50;16.50;11.50
69222;PMS7003;56514;51.816;-0.026;2023-02-15T15:10:35;16.75;16.75;13.25
69222;PMS7003;56514;51.816;-0.026;2023-02-15T15:19:10;13.25;13.25;11.00
69222;PMS7003;56514;51.816;-0.026;2023-02-15T15:21:56;16.25;16.25;11.75
69222;PMS7003;56514;51.816;-0.026;2023-02-15T15:24:48;13.50;13.50;11.00
69222;PMS7003;56514;51.816;-0.026;2023-02-15T15:30:52;11.00;11.00;10.00
69222;PMS7003;56514;51.816;-0.026;2023-02-15T15:33:49;13.00;13.00;10.00
69222;PMS7003;56514;51.816;-0.026;2023-02-15T15:43:29;11.00;11.00;9.50
69222;PMS7003;56514;51.816;-0.026;2023-02-15T15:49:43;9.75;9.75;9.00
69222;PMS7003;56514;51.816;-0.026;2023-02-15T15:52:28;9.25;9.25;8.00
69222;PMS7003;56514;51.816;-0.026;2023-02-15T15:55:17;8.25;8.00;7.25
69222;PMS7003;56514;51.816;-0.026;2023-02-15T15:58:06;12.00;12.00;10.25
69222;PMS7003;56514;51.816;-0.026;2023-02-15T16:00:54;8.75;8.75;8.00
69222;PMS7003;56514;51.816;-0.026;2023-02-15T16:03:52;9.50;9.50;8.50
69222;PMS7003;56514;51.816;-0.026;2023-02-15T16:10:05;12.50;12.50;9.00
69222;PMS7003;56514;51.816;-0.026;2023-02-15T16:12:52;11.50;11.50;10.50
69222;PMS7003;56514;51.816;-0.026;2023-02-15T16:15:49;8.50;8.50;7.00
69222;PMS7003;56514;51.816;-0.026;2023-02-15T16:18:37;12.25;12.00;9.00
69222;PMS7003;56514;51.816;-0.026;2023-02-15T16:21:27;8.50;8.50;7.25
69222;PMS7003;56514;51.816;-0.026;2023-02-15T16:24:24;11.00;11.00;9.50
69222;PMS7003;56514;51.816;-0.026;2023-02-15T16:27:13;9.00;9.00;7.50
69222;PMS7003;56514;51.816;-0.026;2023-02-15T16:30:28;7.50;7.50;7.25
69222;PMS7003;56514;51.816;-0.026;2023-02-15T16:33:16;9.75;9.75;9.00
69222;PMS7003;56514;51.816;-0.026;2023-02-15T16:36:01;7.00;7.00;6.75
69222;PMS7003;56514;51.816;-0.026;2023-02-15T16:41:35;10.00;9.00;9.00
69222;PMS7003;56514;51.816;-0.026;2023-02-15T16:44:22;9.50;9.50;8.50
69222;PMS7003;56514;51.816;-0.026;2023-02-15T16:47:17;8.25;8.25;6.25
69222;PMS7003;56514;51.816;-0.026;2023-02-15T16:50:06;9.75;9.75;8.00
69222;PMS7003;56514;51.816;-0.026;2023-02-15T16:53:06;10.50;10.50;8.00
69222;PMS7003;56514;51.816;-0.026;2023-02-15T16:56:02;9.00;9.00;8.00
69222;PMS7003;56514;51.816;-0.026;2023-02-15T16:58:49;8.25;8.25;7.75
69222;PMS7003;56514;51.816;-0.026;2023-02-15T17:01:37;10.50;10.50;9.00
69222;PMS7003;56514;51.816;-0.026;2023-02-15T17:07:13;8.25;7.25;5.50
69222;PMS7003;56514;51.816;-0.026;2023-02-15T17:10:01;7.00;7.00;6.25
69222;PMS7003;56514;51.816;-0.026;2023-02-15T17:12:47;7.75;7.75;5.50
69222;PMS7003;56514;51.816;-0.026;2023-02-15T17:15:41;9.25;9.25;8.00
69222;PMS7003;56514;51.816;-0.026;2023-02-15T17:18:28;7.50;7.50;6.50
69222;PMS7003;56514;51.816;-0.026;2023-02-15T17:21:18;9.25;9.25;8.00
69222;PMS7003;56514;51.816;-0.026;2023-02-15T17:24:04;6.00;6.00;5.00
69222;PMS7003;56514;51.816;-0.026;2023-02-15T17:26:50;9.25;9.00;7.00
69222;PMS7003;56514;51.816;-0.026;2023-02-15T17:29:50;15.50;15.50;11.75
69222;PMS7003;56514;51.816;-0.026;2023-02-15T17:32:36;9.25;9.25;6.00
69222;PMS7003;56514;51.816;-0.026;2023-02-15T17:35:32;9.00;9.00;6.00
69222;PMS7003;56514;51.816;-0.026;2023-02-15T17:38:18;5.75;5.75;5.00
69222;PMS7003;56514;51.816;-0.026;2023-02-15T17:41:04;6.00;6.00;5.75
69222;PMS7003;56514;51.816;-0.026;2023-02-15T17:43:49;5.00;5.00;5.00
69222;PMS7003;56514;51.816;-0.026;2023-02-15T17:46:35;5.50;5.50;5.50
69222;PMS7003;56514;51.816;-0.026;2023-02-15T17:49:22;6.00;6.00;5.00
69222;PMS7003;56514;51.816;-0.026;2023-02-15T17:52:11;8.25;8.25;6.50
69222;PMS7003;56514;51.816;-0.026;2023-02-15T17:55:01;10.00;9.00;8.00
69222;PMS7003;56514;51.816;-0.026;2023-02-15T17:58:16;9.00;9.00;8.00
69222;PMS7003;56514;51.816;-0.026;2023-02-15T18:01:05;10.00;10.00;8.00
69222;PMS7003;56514;51.816;-0.026;2023-02-15T18:04:11;7.75;7.75;7.50
69222;PMS7003;56514;51.816;-0.026;2023-02-15T18:07:16;11.75;11.75;9.00
69222;PMS7003;56514;51.816;-0.026;2023-02-15T18:10:21;12.25;11.25;8.75
69222;PMS7003;56514;51.816;-0.026;2023-02-15T18:13:25;17.00;16.00;12.25
69222;PMS7003;56514;51.816;-0.026;2023-02-15T18:16:14;14.00;14.00;12.00
69222;PMS7003;56514;51.816;-0.026;2023-02-15T18:19:01;18.50;18.50;14.50
69222;PMS7003;56514;51.816;-0.026;2023-02-15T18:21:48;15.00;15.00;14.00
69222;PMS7003;56514;51.816;-0.026;2023-02-15T18:24:36;21.00;19.00;14.00
69222;PMS7003;56514;51.816;-0.026;2023-02-15T18:27:20;16.50;16.50;13.50
69222;PMS7003;56514;51.816;-0.026;2023-02-15T18:30:06;17.00;17.00;12.00
69222;PMS7003;56514;51.816;-0.026;2023-02-15T18:32:53;15.25;15.25;12.00
69222;PMS7003;56514;51.816;-0.026;2023-02-15T18:35:44;11.75;11.75;10.00
69222;PMS7003;56514;51.816;-0.026;2023-02-15T18:38:29;11.25;11.25;8.75
69222;PMS7003;56514;51.816;-0.026;2023-02-15T18:41:15;13.50;13.00;10.50
69222;PMS7003;56514;51.816;-0.026;2023-02-15T18:44:02;11.00;11.00;7.50
69222;PMS7003;56514;51.816;-0.026;2023-02-15T18:46:47;11.00;11.00;9.00
69222;PMS7003;56514;51.816;-0.026;2023-02-15T18:49:32;12.00;12.00;10.25
69222;PMS7003;56514;51.816;-0.026;2023-02-15T18:52:18;14.00;14.00;9.00
69222;PMS7003;56514;51.816;-0.026;2023-02-15T18:55:16;8.25;8.25;7.25
69222;PMS7003;56514;51.816;-0.026;2023-02-15T18:58:03;11.75;11.75;9.50